sensor_id;sensor_type;location;lat;lon;timestamp;pressure;altitude;pressure_sealevel;temperature;humidity
44138;BME280;29800;55.942;37.314;2023-06-22T00:02:24;99729.47;;;11.28;66.79
44138;BME280;29800;55.942;37.314;2023-06-22T00:04:50;99728.06;;;11.26;67.16
44138;BME280;29800;55.942;37.314;2023-06-22T00:07:17;99729.13;;;11.25;66.84
44138;BME280;29800;55.942;37.314;2023-06-22T00:09:43;99717.88;;;11.21;67.19
44138;BME280;29800;55.942;37.314;2023-06-22T00:12:09;99722.53;;;11.20;66.99
44138;BME280;29800;55.942;37.314;2023-06-22T00:14:35;99718.38;;;11.18;67.24
44138;BME280;29800;55.942;37.314;2023-06-22T00:17:02;99726.03;;;11.16;67.11
44138;BME280;29800;55.942;37.314;2023-06-22T00:19:28;99721.88;;;11.13;67.24
44138;BME280;29800;55.942;37.314;2023-06-22T00:21:54;99726.53;;;11.13;67.21
44138;BME280;29800;55.942;37.314;2023-06-22T00:24:21;99727.34;;;11.13;67.42
44138;BME280;29800;55.942;37.314;2023-06-22T00:26:48;99733.59;;;11.09;67.57
44138;BME280;29800;55.942;37.314;2023-06-22T00:29:15;99721.25;;;11.06;67.62
44138;BME280;29800;55.942;37.314;2023-06-22T00:31:42;99726.41;;;11.02;67.70
44138;BME280;29800;55.942;37.314;2023-06-22T00:34:09;99727.47;;;11.01;67.75
44138;BME280;29800;55.942;37.314;2023-06-22T00:36:36;99713.47;;;10.98;67.87
44138;BME280;29800;55.942;37.314;2023-06-22T00:39:03;99718.38;;;10.96;67.44
44138;BME280;29800;55.942;37.314;2023-06-22T00:41:30;99723.28;;;10.94;67.95
44138;BME280;29800;55.942;37.314;2023-06-22T00:43:57;99724.34;;;10.93;67.56
44138;BME280;29800;55.942;37.314;2023-06-22T00:46:24;99712.81;;;10.91;67.89
44138;BME280;29800;55.942;37.314;2023-06-22T00:48:51;99718.31;;;10.91;67.88
44138;BME280;29800;55.942;37.314;2023-06-22T00:51:18;99720.72;;;10.87;67.73
44138;BME280;29800;55.942;37.314;2023-06-22T00:53:51;99711.66;;;10.87;68.01
44138;BME280;29800;55.942;37.314;2023-06-22T00:56:19;99722.28;;;10.83;67.85
44138;BME280;29800;55.942;37.314;2023-06-22T00:58:51;99716.50;;;10.79;68.31
44138;BME280;29800;55.942;37.314;2023-06-22T01:01:19;99723.28;;;10.77;68.30
44138;BME280;29800;55.942;37.314;2023-06-22T01:03:49;99712.28;;;10.72;67.95
44138;BME280;29800;55.942;37.314;2023-06-22T01:06:21;99712.84;;;10.74;68.41
44138;BME280;29800;55.942;37.314;2023-06-22T01:09:02;99719.16;;;10.74;68.22
44138;BME280;29800;55.942;37.314;2023-06-22T01:11:41;99717.75;;;10.72;68.51
44138;BME280;29800;55.942;37.314;2023-06-22T01:16:45;99714.38;;;10.64;68.49
44138;BME280;29800;55.942;37.314;2023-06-22T01:21:45;99728.56;;;10.61;68.60
44138;BME280;29800;55.942;37.314;2023-06-22T01:24:23;99724.81;;;10.68;69.06
44138;BME280;29800;55.942;37.314;2023-06-22T01:26:54;99725.81;;;10.61;68.86
44138;BME280;29800;55.942;37.314;2023-06-22T01:29:24;99725.00;;;10.61;68.86
44138;BME280;29800;55.942;37.314;2023-06-22T01:31:57;99721.41;;;10.60;69.09
44138;BME280;29800;55.942;37.314;2023-06-22T01:34:24;99725.00;;;10.61;69.19
44138;BME280;29800;55.942;37.314;2023-06-22T01:36:51;99727.47;;;10.62;69.00
44138;BME280;29800;55.942;37.314;2023-06-22T01:39:18;99731.03;;;10.63;69.27
44138;BME280;29800;55.942;37.314;2023-06-22T01:41:47;99728.31;;;10.63;69.18
44138;BME280;29800;55.942;37.314;2023-06-22T01:44:15;99727.22;;;10.64;69.11
44138;BME280;29800;55.942;37.314;2023-06-22T01:46:42;99727.56;;;10.68;69.48
44138;BME280;29800;55.942;37.314;2023-06-22T01:49:08;99723.47;;;10.70;69.87
44138;BME280;29800;55.942;37.314;2023-06-22T01:51:36;99718.06;;;10.75;69.38
44138;BME280;29800;55.942;37.314;2023-06-22T01:54:02;99718.91;;;10.76;69.77
44138;BME280;29800;55.942;37.314;2023-06-22T01:56:29;99713.69;;;10.74;70.22
44138;BME280;29800;55.942;37.314;2023-06-22T01:59:16;99716.81;;;10.83;69.93
44138;BME280;29800;55.942;37.314;2023-06-22T02:01:54;99721.72;;;10.81;69.55
44138;BME280;29800;55.942;37.314;2023-06-22T02:04:36;99715.75;;;10.84;69.14
44138;BME280;29800;55.942;37.314;2023-06-22T02:07:09;99713.84;;;10.84;69.45
44138;BME280;29800;55.942;37.314;2023-06-22T02:09:39;99707.28;;;10.85;68.86
44138;BME280;29800;55.942;37.314;2023-06-22T02:12:11;99700.22;;;10.90;68.95
44138;BME280;29800;55.942;37.314;2023-06-22T02:14:39;99701.88;;;10.91;68.60
44138;BME280;29800;55.942;37.314;2023-06-22T02:17:07;99692.25;;;10.88;68.67
44138;BME280;29800;55.942;37.314;2023-06-22T02:19:41;99690.16;;;10.95;69.12
44138;BME280;29800;55.942;37.314;2023-06-22T02:22:07;99694.34;;;11.03;69.19
44138;BME280;29800;55.942;37.314;2023-06-22T02:24:34;99692.34;;;11.15;69.22
44138;BME280;29800;55.942;37.314;2023-06-22T02:27:01;99691.31;;;11.21;68.97
44138;BME280;29800;55.942;37.314;2023-06-22T02:29:28;99680.41;;;11.27;68.25
44138;BME280;29800;55.942;37.314;2023-06-22T02:31:55;99681.22;;;11.27;68.25
44138;BME280;29800;55.942;37.314;2023-06-22T02:34:21;99681.28;;;11.32;68.39
44138;BME280;29800;55.942;37.314;2023-06-22T02:36:50;99680.53;;;11.37;68.21
44138;BME280;29800;55.942;37.314;2023-06-22T02:39:22;99678.91;;;11.41;68.47
44138;BME280;29800;55.942;37.314;2023-06-22T02:41:51;99673.50;;;11.46;68.17
44138;BME280;29800;55.942;37.314;2023-06-22T02:44:18;99670.31;;;11.54;68.33
44138;BME280;29800;55.942;37.314;2023-06-22T02:46:45;99673.66;;;11.62;68.52
44138;BME280;29800;55.942;37.314;2023-06-22T02:49:13;99678.41;;;11.71;67.98
44138;BME280;29800;55.942;37.314;2023-06-22T02:51:44;99679.31;;;11.82;68.45
44138;BME280;29800;55.942;37.314;2023-06-22T02:54:12;99681.63;;;11.90;68.99
44138;BME280;29800;55.942;37.314;2023-06-22T02:56:38;99673.50;;;12.01;68.51
44138;BME280;29800;55.942;37.314;2023-06-22T02:59:06;99674.66;;;12.10;67.77
44138;BME280;29800;55.942;37.314;2023-06-22T03:01:37;99676.41;;;12.21;67.02
44138;BME280;29800;55.942;37.314;2023-06-22T03:04:12;99672.66;;;12.32;65.99
44138;BME280;29800;55.942;37.314;2023-06-22T03:06:40;99657.09;;;12.43;65.99
44138;BME280;29800;55.942;37.314;2023-06-22T03:09:07;99661.81;;;12.53;65.92
44138;BME280;29800;55.942;37.314;2023-06-22T03:11:35;99653.91;;;12.62;65.91
44138;BME280;29800;55.942;37.314;2023-06-22T03:14:02;99655.88;;;12.72;65.47
44138;BME280;29800;55.942;37.314;2023-06-22T03:16:29;99656.50;;;12.84;65.85
44138;BME280;29800;55.942;37.314;2023-06-22T03:18:56;99650.25;;;12.94;65.89
44138;BME280;29800;55.942;37.314;2023-06-22T03:21:23;99644.50;;;13.00;66.37
44138;BME280;29800;55.942;37.314;2023-06-22T03:23:51;99645.63;;;13.10;65.04
44138;BME280;29800;55.942;37.314;2023-06-22T03:26:18;99641.25;;;13.19;64.68
44138;BME280;29800;55.942;37.314;2023-06-22T03:28:45;99635.78;;;13.29;64.75
44138;BME280;29800;55.942;37.314;2023-06-22T03:31:11;99632.28;;;13.39;64.16
44138;BME280;29800;55.942;37.314;2023-06-22T03:33:40;99633.94;;;13.50;64.18
44138;BME280;29800;55.942;37.314;2023-06-22T03:36:06;99633.69;;;13.62;63.40
44138;BME280;29800;55.942;37.314;2023-06-22T03:38:33;99639.50;;;13.71;63.84
44138;BME280;29800;55.942;37.314;2023-06-22T03:40:59;99644.72;;;13.83;63.26
44138;BME280;29800;55.942;37.314;2023-06-22T03:43:26;99635.38;;;13.94;62.73
44138;BME280;29800;55.942;37.314;2023-06-22T03:45:52;99640.31;;;14.07;61.26
44138;BME280;29800;55.942;37.314;2023-06-22T03:48:19;99635.06;;;14.21;60.69
44138;BME280;29800;55.942;37.314;2023-06-22T03:50:45;99631.22;;;14.32;59.66
44138;BME280;29800;55.942;37.314;2023-06-22T03:53:11;99628.44;;;14.43;59.85
44138;BME280;29800;55.942;37.314;2023-06-22T03:55:47;99629.78;;;14.56;59.42
44138;BME280;29800;55.942;37.314;2023-06-22T03:58:14;99622.38;;;14.66;58.59
44138;BME280;29800;55.942;37.314;2023-06-22T04:00:41;99624.00;;;14.78;58.80
44138;BME280;29800;55.942;37.314;2023-06-22T04:03:07;99615.13;;;14.91;58.71
44138;BME280;29800;55.942;37.314;2023-06-22T04:05:33;99620.28;;;15.03;57.72
44138;BME280;29800;55.942;37.314;2023-06-22T04:08:00;99617.47;;;15.13;57.55
44138;BME280;29800;55.942;37.314;2023-06-22T04:10:26;99616.88;;;15.21;57.40
44138;BME280;29800;55.942;37.314;2023-06-22T04:12:53;99620.19;;;15.29;57.69
44138;BME280;29800;55.942;37.314;2023-06-22T04:15:19;99619.03;;;15.35;56.86
44138;BME280;29800;55.942;37.314;2023-06-22T04:17:46;99625.88;;;15.42;57.25
44138;BME280;29800;55.942;37.314;2023-06-22T04:20:12;99626.13;;;15.46;57.54
44138;BME280;29800;55.942;37.314;2023-06-22T04:22:38;99624.97;;;15.52;57.51
44138;BME280;29800;55.942;37.314;2023-06-22T04:25:05;99617.22;;;15.59;57.88
44138;BME280;29800;55.942;37.314;2023-06-22T04:27:34;99624.34;;;15.66;57.07
44138;BME280;29800;55.942;37.314;2023-06-22T04:30:07;99614.63;;;15.73;57.10
44138;BME280;29800;55.942;37.314;2023-06-22T04:32:34;99617.09;;;15.80;56.43
44138;BME280;29800;55.942;37.314;2023-06-22T04:35:04;99607.91;;;15.90;56.48
44138;BME280;29800;55.942;37.314;2023-06-22T04:37:31;99609.75;;;15.99;57.15
44138;BME280;29800;55.942;37.314;2023-06-22T04:39:58;99614.38;;;16.09;56.48
44138;BME280;29800;55.942;37.314;2023-06-22T04:42:27;99607.41;;;16.17;56.23
44138;BME280;29800;55.942;37.314;2023-06-22T04:44:54;99609.31;;;16.22;56.35
44138;BME280;29800;55.942;37.314;2023-06-22T04:47:20;99608.69;;;16.25;56.45
44138;BME280;29800;55.942;37.314;2023-06-22T04:49:46;99609.78;;;16.29;56.66
44138;BME280;29800;55.942;37.314;2023-06-22T04:52:13;99617.19;;;16.33;56.38
44138;BME280;29800;55.942;37.314;2023-06-22T04:54:40;99615.44;;;16.43;57.22
44138;BME280;29800;55.942;37.314;2023-06-22T04:57:14;99608.97;;;16.52;56.60
44138;BME280;29800;55.942;37.314;2023-06-22T04:59:41;99606.94;;;16.63;55.67
44138;BME280;29800;55.942;37.314;2023-06-22T05:02:08;99615.09;;;16.73;55.73
44138;BME280;29800;55.942;37.314;2023-06-22T05:04:34;99606.16;;;16.82;55.57
44138;BME280;29800;55.942;37.314;2023-06-22T05:07:06;99612.13;;;16.94;55.32
44138;BME280;29800;55.942;37.314;2023-06-22T05:09:32;99608.06;;;17.11;56.54
44138;BME280;29800;55.942;37.314;2023-06-22T05:12:02;99608.13;;;17.24;55.09
44138;BME280;29800;55.942;37.314;2023-06-22T05:14:31;99608.44;;;17.42;55.84
44138;BME280;29800;55.942;37.314;2023-06-22T05:16:58;99602.44;;;17.54;54.48
44138;BME280;29800;55.942;37.314;2023-06-22T05:19:25;99607.75;;;17.69;54.95
44138;BME280;29800;55.942;37.314;2023-06-22T05:21:57;99599.81;;;17.81;54.62
44138;BME280;29800;55.942;37.314;2023-06-22T05:24:23;99605.75;;;17.94;52.71
44138;BME280;29800;55.942;37.314;2023-06-22T05:26:49;99603.81;;;18.08;51.57
44138;BME280;29800;55.942;37.314;2023-06-22T05:29:16;99596.88;;;18.25;52.08
44138;BME280;29800;55.942;37.314;2023-06-22T05:31:42;99593.31;;;18.38;51.81
44138;BME280;29800;55.942;37.314;2023-06-22T05:34:08;99587.59;;;18.48;51.34
44138;BME280;29800;55.942;37.314;2023-06-22T05:36:35;99595.09;;;18.62;52.62
44138;BME280;29800;55.942;37.314;2023-06-22T05:39:11;99601.97;;;18.78;52.20
44138;BME280;29800;55.942;37.314;2023-06-22T05:41:38;99602.63;;;18.89;50.69
44138;BME280;29800;55.942;37.314;2023-06-22T05:44:05;99600.44;;;19.00;50.18
44138;BME280;29800;55.942;37.314;2023-06-22T05:46:31;99593.56;;;19.11;49.52
44138;BME280;29800;55.942;37.314;2023-06-22T05:48:57;99601.13;;;19.19;49.61
44138;BME280;29800;55.942;37.314;2023-06-22T05:51:24;99590.97;;;19.28;50.23
44138;BME280;29800;55.942;37.314;2023-06-22T05:53:50;99594.00;;;19.41;49.00
44138;BME280;29800;55.942;37.314;2023-06-22T05:56:17;99595.53;;;19.47;48.12
44138;BME280;29800;55.942;37.314;2023-06-22T05:58:43;99593.13;;;19.54;49.30
44138;BME280;29800;55.942;37.314;2023-06-22T06:01:09;99597.94;;;19.62;47.48
44138;BME280;29800;55.942;37.314;2023-06-22T06:03:36;99596.06;;;19.72;47.37
44138;BME280;29800;55.942;37.314;2023-06-22T06:06:07;99589.97;;;19.83;46.11
44138;BME280;29800;55.942;37.314;2023-06-22T06:08:34;99597.72;;;19.95;47.63
44138;BME280;29800;55.942;37.314;2023-06-22T06:11:00;99589.47;;;20.04;46.14
44138;BME280;29800;55.942;37.314;2023-06-22T06:13:26;99596.41;;;20.15;46.38
44138;BME280;29800;55.942;37.314;2023-06-22T06:15:52;99588.91;;;20.25;45.87
44138;BME280;29800;55.942;37.314;2023-06-22T06:18:21;99590.28;;;20.36;45.09
44138;BME280;29800;55.942;37.314;2023-06-22T06:20:47;99592.47;;;20.48;45.37
44138;BME280;29800;55.942;37.314;2023-06-22T06:23:13;99588.25;;;20.59;43.66
44138;BME280;29800;55.942;37.314;2023-06-22T06:25:40;99591.94;;;20.68;43.46
44138;BME280;29800;55.942;37.314;2023-06-22T06:28:06;99586.06;;;20.79;41.97
44138;BME280;29800;55.942;37.314;2023-06-22T06:30:33;99596.91;;;20.89;42.79
44138;BME280;29800;55.942;37.314;2023-06-22T06:32:59;99589.41;;;20.98;42.29
44138;BME280;29800;55.942;37.314;2023-06-22T06:35:25;99594.34;;;21.10;42.24
44138;BME280;29800;55.942;37.314;2023-06-22T06:37:52;99591.91;;;21.17;42.75
44138;BME280;29800;55.942;37.314;2023-06-22T06:40:18;99599.63;;;21.29;40.58
44138;BME280;29800;55.942;37.314;2023-06-22T06:42:48;99586.88;;;21.37;39.49
44138;BME280;29800;55.942;37.314;2023-06-22T06:45:21;99590.63;;;21.41;41.67
44138;BME280;29800;55.942;37.314;2023-06-22T06:47:51;99591.94;;;21.43;41.17
44138;BME280;29800;55.942;37.314;2023-06-22T06:50:18;99583.75;;;21.47;41.55
44138;BME280;29800;55.942;37.314;2023-06-22T06:52:45;99587.41;;;21.56;43.30
44138;BME280;29800;55.942;37.314;2023-06-22T06:55:12;99578.69;;;21.58;41.30
44138;BME280;29800;55.942;37.314;2023-06-22T06:57:39;99579.69;;;21.62;41.50
44138;BME280;29800;55.942;37.314;2023-06-22T07:00:10;99590.34;;;21.69;41.51
44138;BME280;29800;55.942;37.314;2023-06-22T07:02:41;99581.97;;;21.77;40.53
44138;BME280;29800;55.942;37.314;2023-06-22T07:05:09;99583.44;;;21.83;40.61
44138;BME280;29800;55.942;37.314;2023-06-22T07:07:36;99574.91;;;21.89;40.44
44138;BME280;29800;55.942;37.314;2023-06-22T07:10:02;99578.50;;;21.98;39.64
44138;BME280;29800;55.942;37.314;2023-06-22T07:12:30;99580.13;;;22.08;39.64
44138;BME280;29800;55.942;37.314;2023-06-22T07:15:06;99574.84;;;22.15;40.24
44138;BME280;29800;55.942;37.314;2023-06-22T07:17:36;99577.47;;;22.20;39.34
44138;BME280;29800;55.942;37.314;2023-06-22T07:20:03;99576.66;;;22.19;39.41
44138;BME280;29800;55.942;37.314;2023-06-22T07:22:39;99574.34;;;22.21;38.16
44138;BME280;29800;55.942;37.314;2023-06-22T07:25:06;99570.75;;;22.30;39.99
44138;BME280;29800;55.942;37.314;2023-06-22T07:27:43;99574.19;;;22.35;39.02
44138;BME280;29800;55.942;37.314;2023-06-22T07:30:10;99576.63;;;22.37;39.00
44138;BME280;29800;55.942;37.314;2023-06-22T07:32:36;99576.44;;;22.42;39.22
44138;BME280;29800;55.942;37.314;2023-06-22T07:35:03;99564.50;;;22.42;38.04
44138;BME280;29800;55.942;37.314;2023-06-22T07:37:31;99559.41;;;22.44;37.79
44138;BME280;29800;55.942;37.314;2023-06-22T07:40:00;99557.75;;;22.43;37.65
44138;BME280;29800;55.942;37.314;2023-06-22T07:42:29;99564.16;;;22.43;38.59
44138;BME280;29800;55.942;37.314;2023-06-22T07:44:58;99555.28;;;22.41;38.22
44138;BME280;29800;55.942;37.314;2023-06-22T07:47:25;99565.63;;;22.41;38.22
44138;BME280;29800;55.942;37.314;2023-06-22T07:49:55;99567.94;;;22.38;38.37
44138;BME280;29800;55.942;37.314;2023-06-22T07:52:24;99572.69;;;22.38;37.50
44138;BME280;29800;55.942;37.314;2023-06-22T07:54:51;99561.53;;;22.38;37.35
44138;BME280;29800;55.942;37.314;2023-06-22T07:57:18;99557.56;;;22.48;39.41
44138;BME280;29800;55.942;37.314;2023-06-22T07:59:44;99553.25;;;22.59;40.25
44138;BME280;29800;55.942;37.314;2023-06-22T08:02:11;99550.72;;;22.75;38.81
44138;BME280;29800;55.942;37.314;2023-06-22T08:04:38;99552.97;;;22.82;40.15
44138;BME280;29800;55.942;37.314;2023-06-22T08:07:05;99551.66;;;22.79;38.37
44138;BME280;29800;55.942;37.314;2023-06-22T08:09:32;99553.31;;;22.80;38.19
44138;BME280;29800;55.942;37.314;2023-06-22T08:11:59;99548.88;;;22.79;37.32
44138;BME280;29800;55.942;37.314;2023-06-22T08:14:26;99551.50;;;22.84;37.50
44138;BME280;29800;55.942;37.314;2023-06-22T08:16:53;99542.41;;;22.87;37.01
44138;BME280;29800;55.942;37.314;2023-06-22T08:19:19;99536.69;;;22.92;37.63
44138;BME280;29800;55.942;37.314;2023-06-22T08:21:45;99542.25;;;22.92;37.81
44138;BME280;29800;55.942;37.314;2023-06-22T08:24:11;99546.19;;;22.91;38.62
44138;BME280;29800;55.942;37.314;2023-06-22T08:26:38;99538.56;;;23.09;39.28
44138;BME280;29800;55.942;37.314;2023-06-22T08:29:05;99542.91;;;23.19;36.60
44138;BME280;29800;55.942;37.314;2023-06-22T08:31:31;99540.50;;;23.51;37.30
44138;BME280;29800;55.942;37.314;2023-06-22T08:34:01;99540.38;;;23.68;36.47
44138;BME280;29800;55.942;37.314;2023-06-22T08:36:27;99534.66;;;23.86;37.73
44138;BME280;29800;55.942;37.314;2023-06-22T08:39:03;99537.91;;;23.88;36.68
44138;BME280;29800;55.942;37.314;2023-06-22T08:41:30;99528.63;;;23.96;36.22
44138;BME280;29800;55.942;37.314;2023-06-22T08:43:57;99539.22;;;24.03;35.85
44138;BME280;29800;55.942;37.314;2023-06-22T08:46:23;99549.84;;;24.10;35.64
44138;BME280;29800;55.942;37.314;2023-06-22T08:48:56;99541.84;;;24.20;34.57
44138;BME280;29800;55.942;37.314;2023-06-22T08:51:23;99526.38;;;24.35;35.71
44138;BME280;29800;55.942;37.314;2023-06-22T08:53:50;99521.50;;;24.57;35.78
44138;BME280;29800;55.942;37.314;2023-06-22T08:56:16;99517.75;;;24.77;35.27
44138;BME280;29800;55.942;37.314;2023-06-22T08:58:42;99506.31;;;24.95;35.17
44138;BME280;29800;55.942;37.314;2023-06-22T09:01:09;99505.25;;;25.00;35.01
44138;BME280;29800;55.942;37.314;2023-06-22T09:03:35;99502.56;;;25.03;33.83
44138;BME280;29800;55.942;37.314;2023-06-22T09:06:03;99499.75;;;25.16;33.61
44138;BME280;29800;55.942;37.314;2023-06-22T09:08:30;99503.81;;;25.30;33.67
44138;BME280;29800;55.942;37.314;2023-06-22T09:10:56;99491.56;;;25.35;33.25
44138;BME280;29800;55.942;37.314;2023-06-22T09:13:22;99503.84;;;25.46;33.85
44138;BME280;29800;55.942;37.314;2023-06-22T09:15:49;99500.09;;;25.55;33.57
44138;BME280;29800;55.942;37.314;2023-06-22T09:18:15;99497.19;;;25.79;34.72
44138;BME280;29800;55.942;37.314;2023-06-22T09:20:41;99501.06;;;25.91;34.06
44138;BME280;29800;55.942;37.314;2023-06-22T09:23:08;99498.34;;;26.07;33.22
44138;BME280;29800;55.942;37.314;2023-06-22T09:25:34;99487.31;;;26.14;33.23
44138;BME280;29800;55.942;37.314;2023-06-22T09:28:01;99488.66;;;26.04;32.84
44138;BME280;29800;55.942;37.314;2023-06-22T09:30:27;99480.25;;;26.20;33.16
44138;BME280;29800;55.942;37.314;2023-06-22T09:32:53;99478.34;;;26.24;32.54
44138;BME280;29800;55.942;37.314;2023-06-22T09:35:20;99479.09;;;26.37;32.07
44138;BME280;29800;55.942;37.314;2023-06-22T09:37:46;99470.31;;;26.38;32.37
44138;BME280;29800;55.942;37.314;2023-06-22T09:40:13;99476.06;;;26.46;33.67
44138;BME280;29800;55.942;37.314;2023-06-22T09:42:41;99467.94;;;26.56;33.08
44138;BME280;29800;55.942;37.314;2023-06-22T09:45:08;99469.53;;;26.73;33.37
44138;BME280;29800;55.942;37.314;2023-06-22T09:47:34;99473.06;;;26.86;33.35
44138;BME280;29800;55.942;37.314;2023-06-22T09:50:01;99474.75;;;26.91;31.74
44138;BME280;29800;55.942;37.314;2023-06-22T09:52:31;99476.69;;;27.06;32.30
44138;BME280;29800;55.942;37.314;2023-06-22T09:54:58;99477.88;;;27.05;31.62
44138;BME280;29800;55.942;37.314;2023-06-22T09:57:24;99455.34;;;27.21;30.68
44138;BME280;29800;55.942;37.314;2023-06-22T09:59:50;99457.00;;;27.42;30.95
44138;BME280;29800;55.942;37.314;2023-06-22T10:02:17;99455.19;;;27.53;30.91
44138;BME280;29800;55.942;37.314;2023-06-22T10:04:43;99448.66;;;27.45;31.39
44138;BME280;29800;55.942;37.314;2023-06-22T10:07:09;99443.22;;;27.56;31.24
44138;BME280;29800;55.942;37.314;2023-06-22T10:09:36;99437.59;;;27.56;30.72
44138;BME280;29800;55.942;37.314;2023-06-22T10:12:02;99437.69;;;27.60;30.03
44138;BME280;29800;55.942;37.314;2023-06-22T10:14:28;99446.84;;;27.57;29.20
44138;BME280;29800;55.942;37.314;2023-06-22T10:16:55;99437.22;;;27.58;28.93
44138;BME280;29800;55.942;37.314;2023-06-22T10:19:21;99425.31;;;27.64;29.64
44138;BME280;29800;55.942;37.314;2023-06-22T10:21:48;99424.34;;;27.76;29.15
44138;BME280;29800;55.942;37.314;2023-06-22T10:24:14;99422.13;;;27.89;28.90
44138;BME280;29800;55.942;37.314;2023-06-22T10:26:41;99427.22;;;28.03;31.36
44138;BME280;29800;55.942;37.314;2023-06-22T10:29:07;99416.09;;;28.10;29.68
44138;BME280;29800;55.942;37.314;2023-06-22T10:31:33;99427.00;;;28.38;29.63
44138;BME280;29800;55.942;37.314;2023-06-22T10:34:00;99420.31;;;28.47;29.10
44138;BME280;29800;55.942;37.314;2023-06-22T10:36:26;99418.75;;;28.53;28.91
44138;BME280;29800;55.942;37.314;2023-06-22T10:38:52;99410.78;;;28.55;28.77
44138;BME280;29800;55.942;37.314;2023-06-22T10:41:19;99414.34;;;28.52;29.06
44138;BME280;29800;55.942;37.314;2023-06-22T10:43:46;99403.84;;;28.49;29.26
44138;BME280;29800;55.942;37.314;2023-06-22T10:46:12;99413.00;;;28.69;30.04
44138;BME280;29800;55.942;37.314;2023-06-22T10:48:39;99402.31;;;28.82;29.77
44138;BME280;29800;55.942;37.314;2023-06-22T10:51:05;99409.44;;;28.72;28.50
44138;BME280;29800;55.942;37.314;2023-06-22T10:53:32;99409.81;;;28.70;28.48
44138;BME280;29800;55.942;37.314;2023-06-22T10:55:58;99406.75;;;28.83;29.39
44138;BME280;29800;55.942;37.314;2023-06-22T10:58:24;99397.88;;;28.81;28.47
44138;BME280;29800;55.942;37.314;2023-06-22T11:00:51;99398.59;;;28.74;28.50
44138;BME280;29800;55.942;37.314;2023-06-22T11:03:17;99392.34;;;28.57;27.94
44138;BME280;29800;55.942;37.314;2023-06-22T11:05:43;99387.81;;;28.53;29.49
44138;BME280;29800;55.942;37.314;2023-06-22T11:08:10;99384.88;;;28.72;28.71
44138;BME280;29800;55.942;37.314;2023-06-22T11:10:37;99385.72;;;28.73;28.49
44138;BME280;29800;55.942;37.314;2023-06-22T11:13:03;99376.22;;;28.85;28.20
44138;BME280;29800;55.942;37.314;2023-06-22T11:15:31;99378.88;;;28.74;28.84
44138;BME280;29800;55.942;37.314;2023-06-22T11:17:57;99378.31;;;28.61;29.31
44138;BME280;29800;55.942;37.314;2023-06-22T11:20:24;99376.13;;;28.51;29.31
44138;BME280;29800;55.942;37.314;2023-06-22T11:22:50;99364.19;;;28.31;28.90
44138;BME280;29800;55.942;37.314;2023-06-22T11:25:17;99373.09;;;28.10;29.28
44138;BME280;29800;55.942;37.314;2023-06-22T11:27:43;99374.50;;;27.96;29.57
44138;BME280;29800;55.942;37.314;2023-06-22T11:30:09;99361.28;;;28.00;29.57
44138;BME280;29800;55.942;37.314;2023-06-22T11:32:36;99358.38;;;27.93;30.28
44138;BME280;29800;55.942;37.314;2023-06-22T11:35:02;99354.81;;;27.96;30.50
44138;BME280;29800;55.942;37.314;2023-06-22T11:37:31;99353.41;;;28.10;29.67
44138;BME280;29800;55.942;37.314;2023-06-22T11:39:57;99345.66;;;28.30;30.51
44138;BME280;29800;55.942;37.314;2023-06-22T11:42:24;99348.03;;;28.54;30.27
44138;BME280;29800;55.942;37.314;2023-06-22T11:44:51;99337.78;;;28.69;29.99
44138;BME280;29800;55.942;37.314;2023-06-22T11:47:17;99347.88;;;28.70;29.06
44138;BME280;29800;55.942;37.314;2023-06-22T11:49:44;99337.91;;;28.50;29.85
44138;BME280;29800;55.942;37.314;2023-06-22T11:52:10;99340.88;;;28.30;29.28
44138;BME280;29800;55.942;37.314;2023-06-22T11:54:37;99340.84;;;28.03;29.08
44138;BME280;29800;55.942;37.314;2023-06-22T11:57:04;99345.94;;;27.94;29.69
44138;BME280;29800;55.942;37.314;2023-06-22T11:59:30;99331.78;;;27.91;30.31
44138;BME280;29800;55.942;37.314;2023-06-22T12:01:57;99334.06;;;28.04;30.66
44138;BME280;29800;55.942;37.314;2023-06-22T12:04:24;99336.44;;;28.29;30.63
44138;BME280;29800;55.942;37.314;2023-06-22T12:06:50;99323.28;;;28.37;29.53
44138;BME280;29800;55.942;37.314;2023-06-22T12:09:16;99323.22;;;28.33;29.55
44138;BME280;29800;55.942;37.314;2023-06-22T12:11:43;99315.56;;;28.30;30.60
44138;BME280;29800;55.942;37.314;2023-06-22T12:14:09;99312.94;;;28.18;29.94
44138;BME280;29800;55.942;37.314;2023-06-22T12:16:35;99310.13;;;28.18;28.54
44138;BME280;29800;55.942;37.314;2023-06-22T12:19:02;99303.00;;;28.24;28.73
44138;BME280;29800;55.942;37.314;2023-06-22T12:21:28;99305.53;;;28.33;28.68
44138;BME280;29800;55.942;37.314;2023-06-22T12:23:54;99298.41;;;28.42;28.37
44138;BME280;29800;55.942;37.314;2023-06-22T12:26:21;99294.94;;;28.53;28.36
44138;BME280;29800;55.942;37.314;2023-06-22T12:28:47;99286.41;;;28.46;29.08
44138;BME280;29800;55.942;37.314;2023-06-22T12:31:14;99296.72;;;28.34;30.30
44138;BME280;29800;55.942;37.314;2023-06-22T12:33:41;99294.28;;;28.33;30.47
44138;BME280;29800;55.942;37.314;2023-06-22T12:36:07;99288.19;;;28.27;29.90
44138;BME280;29800;55.942;37.314;2023-06-22T12:38:33;99290.03;;;28.16;29.95
44138;BME280;29800;55.942;37.314;2023-06-22T12:41:00;99288.81;;;28.17;29.30
44138;BME280;29800;55.942;37.314;2023-06-22T12:43:26;99285.19;;;28.16;27.40
44138;BME280;29800;55.942;37.314;2023-06-22T12:45:52;99282.09;;;28.25;27.80
44138;BME280;29800;55.942;37.314;2023-06-22T12:48:19;99281.72;;;28.27;28.31
44138;BME280;29800;55.942;37.314;2023-06-22T12:50:46;99281.63;;;28.19;29.88
44138;BME280;29800;55.942;37.314;2023-06-22T12:53:13;99278.88;;;28.23;29.23
44138;BME280;29800;55.942;37.314;2023-06-22T12:55:40;99272.53;;;28.30;28.24
44138;BME280;29800;55.942;37.314;2023-06-22T12:58:06;99266.09;;;28.29;28.09